Time;durP1;ratioP1;P1;durP2;ratioP2;P2;SDS_P1;SDS_P2;PMS_P1;PMS_P2;Temp;Humidity;BMP_temperature;BMP_pressure;BME280_temperature;BME280_humidity;BME280_pressure;Samples;Min_cycle;Max_cycle;Signal;HPM_P1;HPM_P2
2023/08/21 00:00:22;;;;;;;9.48;8.48;;;;;;;28.81;62.16;100597.44;4934627;29;20044;-72
2023/08/21 00:02:51;;;;;;;10.70;8.80;;;;;;;28.78;62.09;100597.88;4934428;29;20067;-72
2023/08/21 00:05:19;;;;;;;9.82;8.82;;;;;;;28.78;61.65;100593.22;4934394;29;20047;-72
2023/08/21 00:07:51;;;;;;;10.18;8.70;;;;;;;28.75;62.16;100587.28;4934744;29;20044;-71
2023/08/21 00:10:21;;;;;;;10.00;8.52;;;;;;;28.76;61.82;100600.81;4934391;29;20048;-72
2023/08/21 00:12:49;;;;;;;10.35;9.10;;;;;;;28.74;62.09;100594.66;4934568;29;20048;-71
2023/08/21 00:15:17;;;;;;;9.48;8.50;;;;;;;28.74;61.88;100602.06;4934479;29;20047;-72
2023/08/21 00:17:47;;;;;;;10.48;8.93;;;;;;;28.72;62.03;100599.50;4917797;29;20163;-72
2023/08/21 00:20:15;;;;;;;9.50;8.38;;;;;;;28.71;62.06;100599.72;4934521;29;20083;-72
2023/08/21 00:22:43;;;;;;;11.70;8.38;;;;;;;28.69;62.02;100599.94;4934453;29;20051;-71
2023/08/21 00:25:11;;;;;;;9.43;8.40;;;;;;;28.68;62.08;100598.22;4934387;29;20083;-72
2023/08/21 00:27:42;;;;;;;9.77;8.77;;;;;;;28.67;62.14;100595.69;4934385;29;20079;-72
2023/08/21 00:30:14;;;;;;;10.77;8.98;;;;;;;28.67;61.83;100598.44;4917475;29;20052;-72
2023/08/21 00:32:43;;;;;;;9.55;8.55;;;;;;;28.64;62.10;100593.34;4934487;29;20382;-72
2023/08/21 00:35:12;;;;;;;9.82;8.73;;;;;;;28.63;62.10;100599.88;4934109;29;20528;-73
2023/08/21 00:37:41;;;;;;;10.93;8.93;;;;;;;28.61;61.78;100605.56;4934082;29;20500;-73
2023/08/21 00:40:10;;;;;;;9.93;8.93;;;;;;;28.61;61.98;100613.81;4934177;29;20043;-73
2023/08/21 00:42:39;;;;;;;11.50;9.05;;;;;;;28.57;62.05;100606.16;4933911;29;20067;-72
2023/08/21 00:45:11;;;;;;;10.88;8.82;;;;;;;28.58;61.97;100613.38;4934119;29;20055;-72
2023/08/21 00:47:40;;;;;;;10.15;8.98;;;;;;;28.56;61.98;100615.44;4934072;29;20059;-72
2023/08/21 00:50:11;;;;;;;10.23;8.68;;;;;;;28.55;62.25;100613.75;4934215;29;20409;-72
2023/08/21 00:52:45;;;;;;;10.35;9.07;;;;;;;28.52;61.72;100612.25;4934228;29;20044;-72
2023/08/21 00:55:14;;;;;;;9.93;8.75;;;;;;;28.47;61.97;100604.66;4942617;29;20142;-72
2023/08/21 00:57:44;;;;;;;10.05;8.55;;;;;;;28.51;62.27;100614.16;4953044;29;20488;-72
2023/08/21 01:00:14;;;;;;;9.45;8.45;;;;;;;28.48;62.04;100611.81;4953326;29;20130;-72
2023/08/21 01:02:42;;;;;;;10.50;9.40;;;;;;;28.48;62.38;100620.06;4953103;29;20066;-72
2023/08/21 01:05:17;;;;;;;10.50;8.85;;;;;;;28.47;62.35;100614.75;4953102;29;20440;-73
2023/08/21 01:07:51;;;;;;;10.13;9.07;;;;;;;28.46;62.42;100613.91;4952981;29;20051;-72
2023/08/21 01:10:35;;;;;;;11.35;9.30;;;;;;;28.43;62.19;100608.81;4952976;29;20047;-72
2023/08/21 01:13:10;;;;;;;9.60;8.60;;;;;;;28.44;62.07;100615.16;4953171;29;20059;-72
2023/08/21 01:15:45;;;;;;;10.23;9.02;;;;;;;28.44;62.45;100615.16;4936167;29;20059;-72
2023/08/21 01:18:15;;;;;;;9.80;8.60;;;;;;;28.42;62.19;100623.59;4952950;29;20087;-72
2023/08/21 01:20:44;;;;;;;10.15;8.88;;;;;;;28.42;62.35;100617.25;4953089;28;20066;-72
2023/08/21 01:23:30;;;;;;;9.68;8.40;;;;;;;28.41;62.30;100621.91;4955432;29;20106;-72
2023/08/21 01:25:59;;;;;;;10.90;8.65;;;;;;;28.40;61.98;100628.44;4956700;29;20048;-75
2023/08/21 01:28:31;;;;;;;10.10;9.00;;;;;;;28.39;62.31;100626.75;4956486;29;20047;-72
2023/08/21 01:31:08;;;;;;;10.05;9.05;;;;;;;28.37;62.01;100623.31;4939366;29;20051;-72
2023/08/21 01:33:44;;;;;;;10.23;9.13;;;;;;;28.37;62.26;100620.59;4956451;29;20047;-72
2023/08/21 01:36:14;;;;;;;9.45;8.45;;;;;;;28.35;62.01;100625.44;4956232;29;20051;-72
2023/08/21 01:38:44;;;;;;;10.27;8.93;;;;;;;28.34;62.61;100628.38;4956324;29;20102;-72
2023/08/21 01:41:12;;;;;;;9.73;8.55;;;;;;;28.31;62.44;100621.41;4956137;29;20070;-72
2023/08/21 01:43:41;;;;;;;8.80;7.90;;;;;;;28.32;62.54;100631.31;4956038;29;20047;-72
2023/08/21 01:46:09;;;;;;;10.45;8.57;;;;;;;28.29;62.17;100626.25;4956336;29;20102;-72
2023/08/21 01:48:38;;;;;;;9.85;8.85;;;;;;;28.30;62.24;100627.94;4956148;29;20079;-72
2023/08/21 01:51:09;;;;;;;9.05;8.15;;;;;;;28.29;62.29;100634.47;4956159;29;20484;-72
2023/08/21 01:53:37;;;;;;;10.15;8.93;;;;;;;28.27;62.57;100639.25;4955928;29;20473;-72
2023/08/21 01:56:06;;;;;;;10.52;9.07;;;;;;;28.26;62.23;100634.81;4938461;29;20079;-72
2023/08/21 01:58:34;;;;;;;11.38;8.70;;;;;;;28.24;62.24;100634.16;4955813;29;20058;-71
2023/08/21 02:01:04;;;;;;;9.70;8.65;;;;;;;28.24;62.64;100637.75;4938737;29;20468;-72
2023/08/21 02:03:33;;;;;;;10.73;8.57;;;;;;;28.23;62.57;100633.31;4955922;29;20095;-72
2023/08/21 02:06:04;;;;;;;9.82;8.55;;;;;;;28.22;62.30;100639.00;4955688;29;20087;-73
2023/08/21 02:08:33;;;;;;;9.18;8.27;;;;;;;28.21;62.73;100634.56;4955971;29;20069;-73
2023/08/21 02:11:02;;;;;;;11.68;8.57;;;;;;;28.20;62.54;100638.38;4955893;29;20129;-73
2023/08/21 02:13:32;;;;;;;11.68;8.60;;;;;;;28.20;62.56;100632.88;4955921;29;20130;-72
2023/08/21 02:16:01;;;;;;;10.00;8.38;;;;;;;28.17;62.50;100633.25;4955657;29;20114;-72
2023/08/21 02:18:30;;;;;;;9.35;8.10;;;;;;;28.17;62.43;100636.84;4955790;29;20519;-73
2023/08/21 02:20:58;;;;;;;10.05;8.57;;;;;;;28.14;62.36;100634.50;4955386;29;20106;-72
2023/08/21 02:23:26;;;;;;;9.60;8.63;;;;;;;28.14;62.79;100634.50;4955314;29;20679;-73
2023/08/21 02:25:55;;;;;;;11.00;8.90;;;;;;;28.14;62.77;100630.91;4955505;29;20090;-72
2023/08/21 02:28:23;;;;;;;9.65;8.65;;;;;;;28.14;62.94;100645.47;4955519;29;20416;-72
2023/08/21 02:30:53;;;;;;;9.55;8.25;;;;;;;28.10;62.98;100633.22;4955461;29;20142;-72
2023/08/21 02:33:21;;;;;;;11.05;8.90;;;;;;;28.11;62.88;100631.31;4954692;28;20510;-72
2023/08/21 02:35:51;;;;;;;10.60;8.88;;;;;;;28.04;62.80;100623.03;4955145;29;20500;-72
2023/08/21 02:38:22;;;;;;;11.63;8.88;;;;;;;28.08;62.84;100628.97;4955382;29;20044;-72
2023/08/21 02:40:50;;;;;;;9.57;8.60;;;;;;;28.09;62.92;100641.66;4955905;29;20051;-72
2023/08/21 02:43:18;;;;;;;9.77;8.77;;;;;;;28.07;63.10;100643.72;4955143;29;20481;-72
2023/08/21 02:45:47;;;;;;;12.05;9.20;;;;;;;28.06;62.69;100636.53;4955016;29;20520;-72
2023/08/21 02:48:19;;;;;;;10.85;8.65;;;;;;;28.04;62.93;100636.75;4954957;29;20121;-72
2023/08/21 02:50:49;;;;;;;9.57;8.57;;;;;;;28.03;62.76;100632.31;4955155;29;20051;-72
2023/08/21 02:53:17;;;;;;;10.32;8.55;;;;;;;28.03;63.16;100637.78;4955184;29;20103;-72
2023/08/21 02:55:45;;;;;;;9.73;8.45;;;;;;;28.00;63.28;100627.22;4954767;29;20070;-72
2023/08/21 02:58:17;;;;;;;9.55;8.48;;;;;;;28.00;63.03;100631.84;4954839;29;20043;-72
2023/08/21 03:00:48;;;;;;;10.05;8.50;;;;;;;27.99;62.84;100631.00;4954622;29;20043;-72
2023/08/21 03:03:17;;;;;;;10.15;8.43;;;;;;;27.97;62.85;100632.22;4954937;29;20074;-72
2023/08/21 03:05:56;;;;;;;10.30;8.27;;;;;;;27.97;62.98;100632.22;4954486;29;20063;-72
2023/08/21 03:08:24;;;;;;;9.68;8.45;;;;;;;27.93;63.06;100627.16;4954549;29;20056;-72
2023/08/21 03:10:53;;;;;;;10.45;9.07;;;;;;;27.95;63.30;100636.03;4954458;29;20511;-72
2023/08/21 03:13:25;;;;;;;10.35;8.63;;;;;;;27.91;62.93;100626.50;4954498;29;20106;-72
2023/08/21 03:15:53;;;;;;;10.02;9.00;;;;;;;27.92;63.38;100628.19;4954418;29;20499;-72
2023/08/21 03:18:21;;;;;;;9.57;8.57;;;;;;;27.91;63.06;100628.41;4954482;29;20058;-72
2023/08/21 03:20:51;;;;;;;9.57;8.23;;;;;;;27.88;63.49;100628.78;4954379;29;20165;-72
2023/08/21 03:23:19;;;;;;;9.80;8.63;;;;;;;27.88;63.38;100628.78;4954575;29;20048;-72
2023/08/21 03:25:47;;;;;;;9.88;8.75;;;;;;;27.87;63.39;100632.56;4954259;29;20114;-72
2023/08/21 03:28:15;;;;;;;9.77;8.70;;;;;;;27.85;63.34;100631.91;4954202;29;20051;-72
2023/08/21 03:30:46;;;;;;;10.02;9.00;;;;;;;27.86;63.30;100641.81;4954303;29;20129;-72
2023/08/21 03:33:14;;;;;;;9.43;8.20;;;;;;;27.84;63.39;100633.81;4954165;29;20563;-72
2023/08/21 03:35:46;;;;;;;9.70;8.70;;;;;;;27.84;63.47;100639.28;4954508;29;20051;-72
2023/08/21 03:38:16;;;;;;;10.35;9.07;;;;;;;27.83;63.55;100636.75;4954117;29;20408;-72
2023/08/21 03:40:45;;;;;;;9.60;8.40;;;;;;;27.80;63.24;100635.25;4954021;29;20051;-72
2023/08/21 03:43:15;;;;;;;9.85;8.63;;;;;;;27.80;63.23;100638.00;4954224;29;20085;-72
2023/08/21 03:45:46;;;;;;;9.15;8.25;;;;;;;27.80;63.58;100634.41;4953231;28;20062;-72
2023/08/21 03:48:14;;;;;;;9.82;8.70;;;;;;;27.78;63.10;100637.31;4953975;29;20047;-72
2023/08/21 03:50:43;;;;;;;10.90;9.00;;;;;;;27.77;63.13;100643.84;4953706;29;20048;-72
2023/08/21 03:53:13;;;;;;;10.93;8.38;;;;;;;27.77;63.31;100643.84;4953777;29;20138;-73
2023/08/21 03:55:42;;;;;;;9.85;8.65;;;;;;;27.76;63.28;100646.78;4954345;29;20106;-73
2023/08/21 03:58:10;;;;;;;9.25;8.23;;;;;;;27.75;63.49;100642.34;4953849;29;20627;-72
2023/08/21 04:00:41;;;;;;;9.45;8.45;;;;;;;27.74;63.66;100649.72;4953883;29;20440;-71
2023/08/21 04:03:09;;;;;;;9.25;7.95;;;;;;;27.73;63.21;100645.28;4936937;29;20047;-71
2023/08/21 04:05:38;;;;;;;10.38;8.82;;;;;;;27.73;63.36;100641.69;4953490;29;20195;-71
2023/08/21 04:08:06;;;;;;;10.25;8.73;;;;;;;27.72;63.72;100634.53;4953577;29;20062;-73
2023/08/21 04:10:35;;;;;;;9.00;8.10;;;;;;;27.72;63.76;100634.53;4953580;29;20047;-72
2023/08/21 04:13:04;;;;;;;11.10;9.13;;;;;;;27.70;63.62;100632.00;4953638;29;20138;-72
2023/08/21 04:15:35;;;;;;;9.85;8.75;;;;;;;27.70;63.73;100637.47;4953730;29;20055;-71
2023/08/21 04:18:04;;;;;;;10.10;8.63;;;;;;;27.67;63.56;100632.34;4953440;29;20047;-73
2023/08/21 04:20:42;;;;;;;10.00;8.57;;;;;;;27.67;63.83;100635.09;4953862;29;20055;-72
2023/08/21 04:23:10;;;;;;;10.32;8.82;;;;;;;27.67;63.89;100637.84;4953614;29;20354;-72
2023/08/21 04:25:38;;;;;;;9.68;8.68;;;;;;;27.65;63.89;100634.41;4953542;29;20086;-72
2023/08/21 04:28:11;;;;;;;9.60;8.60;;;;;;;27.64;63.62;100640.94;4953713;29;20134;-73
2023/08/21 04:30:41;;;;;;;9.88;8.80;;;;;;;27.64;63.36;100643.69;4953328;29;20531;-72
2023/08/21 04:33:10;;;;;;;9.55;8.50;;;;;;;27.63;63.43;100639.25;4953277;29;20472;-72
2023/08/21 04:35:39;;;;;;;10.27;8.68;;;;;;;27.62;63.92;100645.78;4936622;29;20075;-71
2023/08/21 04:38:10;;;;;;;9.70;8.70;;;;;;;27.62;63.63;100645.78;4953347;29;20137;-72
2023/08/21 04:40:38;;;;;;;9.15;7.93;;;;;;;27.61;63.61;100660.53;4953108;29;20488;-72
2023/08/21 04:43:09;;;;;;;9.98;8.15;;;;;;;27.59;63.55;100651.63;4953304;29;20055;-72
2023/08/21 04:45:38;;;;;;;9.43;8.45;;;;;;;27.60;64.14;100656.06;4953174;29;20464;-72
2023/08/21 04:48:07;;;;;;;10.25;8.80;;;;;;;27.59;63.66;100659.84;4953309;29;20090;-72
2023/08/21 04:50:35;;;;;;;11.23;8.90;;;;;;;27.57;63.94;100656.44;4953423;29;20094;-72
2023/08/21 04:53:04;;;;;;;11.77;8.82;;;;;;;27.57;63.94;100660.03;4953321;29;20415;-72
2023/08/21 04:55:32;;;;;;;12.23;8.98;;;;;;;27.57;63.81;100659.19;4953264;28;20063;-72
2023/08/21 04:58:03;;;;;;;10.88;9.10;;;;;;;27.53;64.11;100655.16;4956911;29;20106;-72
2023/08/21 05:00:31;;;;;;;9.93;8.90;;;;;;;27.55;63.85;100656.66;4956916;29;20047;-72
2023/08/21 05:03:01;;;;;;;10.50;8.70;;;;;;;27.55;64.26;100666.75;4956899;29;20043;-72
2023/08/21 05:05:29;;;;;;;11.35;9.00;;;;;;;27.56;63.99;100668.44;4956879;29;20504;-72
2023/08/21 05:07:57;;;;;;;10.30;9.20;;;;;;;27.55;64.14;100673.09;4957019;29;20135;-72
2023/08/21 05:10:25;;;;;;;13.27;9.10;;;;;;;27.54;64.00;100671.38;4957209;29;20051;-72
2023/08/21 05:12:54;;;;;;;10.43;8.90;;;;;;;27.54;64.49;100679.59;4956881;29;20146;-72
2023/08/21 05:15:23;;;;;;;10.73;9.00;;;;;;;27.54;64.03;100676.88;4956779;29;20086;-72
2023/08/21 05:17:54;;;;;;;12.07;9.15;;;;;;;27.54;64.10;100676.88;4956764;29;20048;-72
2023/08/21 05:20:23;;;;;;;11.02;9.35;;;;;;;27.54;64.19;100681.50;4956914;29;20086;-71
2023/08/21 05:22:51;;;;;;;12.02;9.52;;;;;;;27.50;63.96;100681.00;4956383;29;20048;-72
2023/08/21 05:25:22;;;;;;;10.43;9.10;;;;;;;27.51;64.19;100680.00;4956383;29;20055;-72
2023/08/21 05:27:53;;;;;;;11.80;9.45;;;;;;;27.52;64.54;100678.97;4956525;29;20054;-72
2023/08/21 05:30:21;;;;;;;10.50;9.40;;;;;;;27.52;64.41;100680.84;4956498;29;20082;-73
2023/08/21 05:32:50;;;;;;;10.25;8.85;;;;;;;27.52;64.74;100683.59;4956467;29;20382;-72
2023/08/21 05:35:18;;;;;;;10.60;9.27;;;;;;;27.52;64.79;100687.19;4939416;29;20098;-72
2023/08/21 05:37:53;;;;;;;11.35;9.65;;;;;;;27.51;64.37;100690.97;4956256;29;20066;-73
2023/08/21 05:40:21;;;;;;;13.23;9.48;;;;;;;27.52;64.60;100689.06;4956149;29;20100;-72
2023/08/21 05:42:49;;;;;;;10.20;9.05;;;;;;;27.51;64.76;100688.22;4938948;29;20110;-70
2023/08/21 05:45:17;;;;;;;10.45;9.32;;;;;;;27.51;65.01;100687.38;4955996;29;20047;-73
2023/08/21 05:47:46;;;;;;;11.50;9.68;;;;;;;27.50;65.45;100691.97;4955909;29;20055;-74
2023/08/21 05:50:14;;;;;;;10.18;9.00;;;;;;;27.49;65.02;100686.69;4955978;29;20397;-72
2023/08/21 05:52:42;;;;;;;10.38;9.27;;;;;;;27.49;64.96;100695.75;4955938;29;20511;-72
2023/08/21 05:55:12;;;;;;;10.75;9.50;;;;;;;27.51;65.59;100698.34;4955648;29;20066;-73
2023/08/21 05:57:43;;;;;;;10.50;9.40;;;;;;;27.47;65.61;100691.53;4955950;29;20138;-74
2023/08/21 06:00:13;;;;;;;11.23;9.60;;;;;;;27.50;65.42;100697.44;4955644;29;20043;-73
2023/08/21 06:02:42;;;;;;;10.38;9.30;;;;;;;27.50;64.98;100699.34;4955453;29;20042;-73
2023/08/21 06:05:11;;;;;;;10.93;9.20;;;;;;;27.50;65.38;100702.94;4955612;29;20074;-72
2023/08/21 06:07:40;;;;;;;9.93;8.43;;;;;;;27.49;65.23;100697.66;4937685;29;20142;-73
2023/08/21 06:10:12;;;;;;;11.73;8.57;;;;;;;27.51;65.33;100703.81;4953300;29;20094;-72
2023/08/21 06:12:41;;;;;;;10.63;9.52;;;;;;;27.47;65.39;100689.63;4955527;29;20047;-73
2023/08/21 06:15:12;;;;;;;10.95;9.10;;;;;;;27.50;65.41;100697.44;4954717;29;20054;-73
2023/08/21 06:17:41;;;;;;;11.65;8.60;;;;;;;27.50;65.50;100694.72;4955323;29;20107;-73
2023/08/21 06:20:13;;;;;;;13.77;9.60;;;;;;;27.50;65.34;100691.13;4955508;29;20412;-73
2023/08/21 06:22:42;;;;;;;9.70;8.70;;;;;;;27.51;65.43;100698.34;4955402;29;20047;-72
2023/08/21 06:25:10;;;;;;;11.98;9.73;;;;;;;27.50;65.42;100693.88;4957151;29;20047;-76
2023/08/21 06:27:41;;;;;;;10.52;9.02;;;;;;;27.52;65.36;100711.00;4939207;29;20585;-76
2023/08/21 06:30:26;;;;;;;11.10;9.15;;;;;;;27.51;65.59;100701.06;4935972;29;20047;-76
2023/08/21 06:32:54;;;;;;;10.45;8.90;;;;;;;27.49;65.39;100705.88;4936322;29;20055;-77
2023/08/21 06:35:23;;;;;;;10.85;9.00;;;;;;;27.50;65.37;100702.09;4936189;29;20052;-76
2023/08/21 06:37:51;;;;;;;10.20;8.30;;;;;;;27.51;65.22;100703.81;4936162;29;20167;-76
2023/08/21 06:40:32;;;;;;;11.10;9.38;;;;;;;27.51;65.76;100703.81;4903766;29;20139;-76
2023/08/21 06:43:06;;;;;;;10.00;8.93;;;;;;;27.52;65.49;100700.03;4936322;29;20086;-76
2023/08/21 06:45:34;;;;;;;12.23;8.82;;;;;;;27.51;65.36;100701.91;4936252;29;20055;-77
2023/08/21 06:48:02;;;;;;;11.20;8.90;;;;;;;27.52;65.23;100700.03;4935940;29;20127;-76
2023/08/21 06:50:31;;;;;;;9.35;8.30;;;;;;;27.52;65.34;100706.34;4951230;29;20051;-77
2023/08/21 06:52:59;;;;;;;11.02;9.02;;;;;;;27.52;65.48;100697.28;4954724;29;20053;-76
2023/08/21 06:55:28;;;;;;;11.68;9.25;;;;;;;27.53;65.30;100705.31;4954679;29;20050;-76
2023/08/21 06:57:56;;;;;;;9.77;8.77;;;;;;;27.53;65.30;100696.25;4954860;29;20043;-76
2023/08/21 07:00:26;;;;;;;10.55;9.43;;;;;;;27.54;65.33;100700.69;4955097;29;20054;-77
2023/08/21 07:02:54;;;;;;;10.98;8.85;;;;;;;27.52;65.40;100700.03;4954549;29;20468;-76
2023/08/21 07:05:23;;;;;;;11.50;9.45;;;;;;;27.53;65.71;100696.25;4954856;29;20051;-76
2023/08/21 07:07:51;;;;;;;10.45;8.85;;;;;;;27.53;65.57;100697.09;4954520;29;20087;-76
2023/08/21 07:10:19;;;;;;;10.82;8.77;;;;;;;27.54;65.20;100703.41;4954517;29;20059;-76
2023/08/21 07:12:48;;;;;;;11.27;9.15;;;;;;;27.54;65.22;100706.16;4954586;29;20135;-76
2023/08/21 07:15:16;;;;;;;13.50;10.10;;;;;;;27.53;65.16;100698.97;4954645;29;20047;-76
2023/08/21 07:17:46;;;;;;;10.43;9.30;;;;;;;27.54;65.15;100697.94;4954460;29;20611;-75
2023/08/21 07:20:14;;;;;;;11.02;8.70;;;;;;;27.54;65.58;100700.69;4954592;28;20609;-76
2023/08/21 07:22:45;;;;;;;12.93;8.65;;;;;;;27.54;65.61;100704.28;4954036;29;20047;-77
2023/08/21 07:25:17;;;;;;;10.52;9.48;;;;;;;27.56;65.25;100701.34;4954606;29;20106;-75
2023/08/21 07:27:46;;;;;;;10.13;9.00;;;;;;;27.56;65.61;100701.34;4954385;29;20047;-77
2023/08/21 07:30:14;;;;;;;10.55;8.88;;;;;;;27.55;65.55;100699.63;4955507;29;20194;-77
2023/08/21 07:32:47;;;;;;;10.25;8.65;;;;;;;27.54;65.14;100697.94;4955759;29;20051;-78
2023/08/21 07:35:15;;;;;;;10.48;9.38;;;;;;;27.56;65.12;100699.44;4956474;29;20073;-78
2023/08/21 07:37:45;;;;;;;10.27;8.77;;;;;;;27.56;65.46;100691.22;4955025;29;20054;-76
2023/08/21 07:40:13;;;;;;;10.13;9.10;;;;;;;27.57;65.49;100700.28;4954773;29;20074;-75
2023/08/21 07:42:41;;;;;;;10.18;9.05;;;;;;;27.58;65.57;100701.97;4953258;29;20047;-77
2023/08/21 07:45:11;;;;;;;10.93;8.57;;;;;;;27.58;65.21;100710.19;4953874;29;20051;-77
2023/08/21 07:47:39;;;;;;;12.55;9.23;;;;;;;27.59;65.62;100712.75;4937189;29;20134;-76
2023/08/21 07:50:10;;;;;;;9.82;8.82;;;;;;;27.58;65.45;100700.09;4936057;29;20126;-76
2023/08/21 07:52:41;;;;;;;10.60;9.18;;;;;;;27.59;65.07;100706.41;4953813;29;20058;-76
2023/08/21 07:55:10;;;;;;;9.80;8.75;;;;;;;27.58;65.32;100705.56;4953426;29;20047;-76
2023/08/21 07:57:38;;;;;;;9.73;8.73;;;;;;;27.60;65.49;100708.13;4953784;29;20047;-76
2023/08/21 08:00:10;;;;;;;10.15;8.88;;;;;;;27.61;65.03;100704.34;4953890;29;20054;-76
2023/08/21 08:02:42;;;;;;;10.27;9.27;;;;;;;27.59;65.42;100701.78;4953910;29;20047;-77
2023/08/21 08:05:12;;;;;;;10.20;9.10;;;;;;;27.62;65.45;100711.53;4953811;29;20134;-77
2023/08/21 08:07:40;;;;;;;11.00;9.20;;;;;;;27.60;65.16;100714.47;4936764;29;20448;-76
2023/08/21 08:10:09;;;;;;;9.48;8.48;;;;;;;27.63;65.19;100715.97;4953673;29;20047;-75
2023/08/21 08:12:37;;;;;;;9.98;8.82;;;;;;;27.64;65.11;100714.94;4953576;29;20051;-76
2023/08/21 08:15:07;;;;;;;11.90;8.95;;;;;;;27.64;65.12;100710.28;4953603;29;20051;-76
2023/08/21 08:17:35;;;;;;;10.10;8.98;;;;;;;27.65;65.72;100712.03;4953698;29;20051;-77
2023/08/21 08:20:06;;;;;;;10.20;9.10;;;;;;;27.62;65.50;100700.56;4953667;29;20043;-77
2023/08/21 08:22:35;;;;;;;10.75;8.90;;;;;;;27.65;65.25;100712.03;4953669;29;20070;-76
2023/08/21 08:25:05;;;;;;;11.15;9.60;;;;;;;27.68;65.12;100710.78;4953515;29;20084;-77
2023/08/21 08:27:34;;;;;;;10.35;9.25;;;;;;;27.67;65.62;100703.59;4953454;29;20069;-76
2023/08/21 08:30:02;;;;;;;11.07;9.23;;;;;;;27.69;65.24;100700.66;4936500;29;20404;-77
2023/08/21 08:32:34;;;;;;;11.52;9.75;;;;;;;27.69;65.16;100704.25;4959265;28;20113;-75
2023/08/21 08:35:05;;;;;;;9.50;8.48;;;;;;;27.69;65.36;100701.50;4959846;29;20129;-77
2023/08/21 08:37:35;;;;;;;10.20;9.10;;;;;;;27.72;65.30;100703.88;4959334;28;20066;-77
2023/08/21 08:40:04;;;;;;;10.18;9.05;;;;;;;27.72;65.57;100706.63;4960054;29;20407;-77
2023/08/21 08:42:32;;;;;;;10.50;9.40;;;;;;;27.72;65.11;100700.28;4942505;29;20138;-77
2023/08/21 08:45:04;;;;;;;9.85;8.82;;;;;;;27.73;65.62;100708.31;4960046;28;20054;-76
2023/08/21 08:47:36;;;;;;;10.32;9.02;;;;;;;27.75;65.23;100699.91;4959755;28;20051;-77
2023/08/21 08:50:06;;;;;;;10.73;9.32;;;;;;;27.74;65.35;100704.53;4959503;29;20570;-77
2023/08/21 08:52:38;;;;;;;9.68;8.68;;;;;;;27.77;65.20;100714.25;4959824;28;20109;-77
2023/08/21 08:55:09;;;;;;;10.35;9.25;;;;;;;27.76;65.65;100707.94;4959787;28;20156;-77
2023/08/21 08:57:42;;;;;;;10.27;9.27;;;;;;;27.78;65.58;100715.94;4959802;28;20052;-76
2023/08/21 09:00:11;;;;;;;11.02;9.48;;;;;;;27.79;65.42;100718.50;4959826;28;20055;-77
2023/08/21 09:02:40;;;;;;;11.05;9.65;;;;;;;27.79;65.39;100713.00;4942816;29;20047;-76
2023/08/21 09:05:10;;;;;;;11.05;9.57;;;;;;;27.79;65.40;100707.53;4959375;29;20054;-76
2023/08/21 09:07:40;;;;;;;10.43;9.32;;;;;;;27.82;65.70;100712.66;4959689;28;20126;-76
2023/08/21 09:10:14;;;;;;;10.25;9.23;;;;;;;27.81;65.19;100705.47;4959442;29;20051;-77
2023/08/21 09:12:45;;;;;;;12.73;9.70;;;;;;;27.84;65.49;100716.03;4957707;29;20158;-77
2023/08/21 09:15:13;;;;;;;10.02;9.02;;;;;;;27.85;65.82;100711.41;4959290;29;20488;-75
2023/08/21 09:17:42;;;;;;;10.10;8.93;;;;;;;27.85;65.49;100706.78;4959624;29;20047;-77
2023/08/21 09:20:14;;;;;;;10.70;9.35;;;;;;;27.82;65.36;100693.47;4959772;29;20094;-76
2023/08/21 09:22:53;;;;;;;;;;;;;;;27.87;65.54;100704.69;4960193;28;20469;-76
2023/08/21 09:25:25;;;;;;;10.07;9.07;;;;;;;27.88;65.70;100700.88;4959371;28;19977;-77
2023/08/21 09:27:54;;;;;;;10.93;9.52;;;;;;;27.89;65.85;100691.66;4959281;29;20047;-76
2023/08/21 09:30:22;;;;;;;12.30;9.55;;;;;;;27.90;65.82;100698.81;4958908;29;20047;-77
2023/08/21 09:32:55;;;;;;;10.52;9.18;;;;;;;27.93;65.34;100692.94;4942445;29;20051;-77
2023/08/21 09:35:28;;;;;;;10.57;9.38;;;;;;;27.94;65.50;100689.16;4959351;29;20056;-76
2023/08/21 09:37:58;;;;;;;;;;;;;;;27.95;65.46;100685.38;4942943;29;20058;-77
2023/08/21 09:40:26;;;;;;;10.50;9.02;;;;;;;27.98;65.78;100680.53;4942126;29;19937;-76
2023/08/21 09:42:58;;;;;;;10.32;9.13;;;;;;;27.98;65.33;100688.75;4956675;28;20050;-77
2023/08/21 09:45:30;;;;;;;12.60;10.18;;;;;;;28.00;65.45;100686.69;4956230;29;20142;-77
2023/08/21 09:47:59;;;;;;;10.27;9.23;;;;;;;28.00;65.25;100686.69;4955354;29;20607;-77
2023/08/21 09:50:29;;;;;;;11.40;9.50;;;;;;;28.02;65.61;100676.38;4956189;29;20102;-76
2023/08/21 09:52:59;;;;;;;12.05;9.95;;;;;;;28.05;65.21;100678.72;4956313;29;20051;-76
2023/08/21 09:55:32;;;;;;;11.27;9.48;;;;;;;28.03;65.40;100678.91;4956060;29;20439;-76
2023/08/21 09:58:01;;;;;;;11.25;9.43;;;;;;;28.06;65.39;100670.28;4956060;29;20137;-76
2023/08/21 10:00:31;;;;;;;10.82;9.40;;;;;;;28.08;65.31;100672.81;4955940;29;20051;-76
2023/08/21 10:03:03;;;;;;;10.75;8.98;;;;;;;28.09;65.16;100669.06;4955852;29;20105;-76
2023/08/21 10:05:32;;;;;;;10.15;9.05;;;;;;;28.11;65.15;100664.22;4955665;29;20492;-76
2023/08/21 10:08:05;;;;;;;10.45;9.35;;;;;;;28.14;65.40;100666.56;4955836;29;20047;-76
2023/08/21 10:10:36;;;;;;;10.40;9.00;;;;;;;28.13;65.26;100665.72;4938555;29;20457;-76
2023/08/21 10:13:05;;;;;;;11.63;9.85;;;;;;;28.17;65.58;100660.69;4955700;29;20055;-76
2023/08/21 10:15:35;;;;;;;10.65;9.55;;;;;;;28.18;64.95;100660.50;4955244;29;20051;-75
2023/08/21 10:18:19;;;;;;;10.73;9.52;;;;;;;28.21;64.98;100659.25;4955437;29;20500;-77
2023/08/21 10:20:48;;;;;;;11.10;9.35;;;;;;;28.21;64.77;100656.50;4955607;29;20074;-76
2023/08/21 10:23:28;;;;;;;10.65;9.55;;;;;;;28.25;64.39;100652.31;4955452;29;20047;-77
2023/08/21 10:25:58;;;;;;;11.32;10.23;;;;;;;28.27;64.75;100650.22;4938363;29;20062;-76
2023/08/21 10:28:51;;;;;;;11.05;9.35;;;;;;;28.29;64.67;100653.66;4955286;29;20047;-77
2023/08/21 10:31:31;;;;;;;11.55;9.60;;;;;;;28.32;64.09;100647.78;4955143;29;20050;-76
2023/08/21 10:34:01;;;;;;;10.70;9.60;;;;;;;28.33;64.60;100649.47;4955502;29;20078;-76
2023/08/21 10:37:09;;;;;;;11.00;9.90;;;;;;;28.35;64.46;100647.38;4955593;29;20044;-76
2023/08/21 10:39:42;;;;;;;10.90;9.73;;;;;;;28.37;64.70;100648.00;4942875;29;20055;-77
2023/08/21 10:42:13;;;;;;;10.43;9.43;;;;;;;28.40;64.57;100650.38;4955539;29;20383;-77
2023/08/21 10:44:55;;;;;;;11.43;10.23;;;;;;;28.42;63.88;100642.78;4955118;29;20098;-74
2023/08/21 10:47:34;;;;;;;10.77;9.68;;;;;;;28.47;64.09;100645.81;4955079;29;20758;-77
2023/08/21 10:50:04;;;;;;;11.98;10.02;;;;;;;28.49;63.57;100649.19;4955043;29;20058;-75
2023/08/21 10:52:37;;;;;;;12.00;9.80;;;;;;;28.51;63.55;100647.09;4954783;29;20567;-77
2023/08/21 10:55:09;;;;;;;11.93;10.00;;;;;;;28.55;63.32;100641.19;4954527;28;20059;-76
2023/08/21 10:57:40;;;;;;;11.48;10.20;;;;;;;28.57;63.47;100644.56;4954988;29;20063;-76
2023/08/21 11:00:11;;;;;;;12.27;10.20;;;;;;;28.61;62.99;100640.41;4955456;29;20102;-76
2023/08/21 11:02:41;;;;;;;11.65;9.70;;;;;;;28.63;62.56;100636.41;4954928;29;20058;-76
2023/08/21 11:05:11;;;;;;;10.70;9.60;;;;;;;28.66;62.48;100636.03;4955010;29;20043;-77
2023/08/21 11:07:41;;;;;;;11.63;10.05;;;;;;;28.70;62.20;100639.19;4954655;29;20074;-77
2023/08/21 11:10:13;;;;;;;10.60;9.38;;;;;;;28.72;61.78;100639.84;4954370;29;20051;-77
2023/08/21 11:12:56;;;;;;;13.80;10.35;;;;;;;28.76;61.56;100630.16;4954807;29;20052;-77
2023/08/21 11:15:25;;;;;;;;;;;;;;;28.78;61.63;100625.31;4955190;29;20047;-77
2023/08/21 11:17:56;;;;;;;11.68;10.32;;;;;;;28.80;61.75;100623.22;4954692;29;19973;-76
2023/08/21 11:20:28;;;;;;;11.40;10.30;;;;;;;28.84;61.57;100627.22;4954471;29;20401;-77
2023/08/21 11:22:58;;;;;;;11.25;10.05;;;;;;;28.87;61.35;100618.63;4954654;29;20062;-77
2023/08/21 11:25:29;;;;;;;11.65;10.25;;;;;;;28.90;61.63;100618.22;4937603;29;20051;-76
2023/08/21 11:27:58;;;;;;;12.00;10.13;;;;;;;28.94;61.19;100616.75;4954169;29;20445;-77
2023/08/21 11:30:26;;;;;;;12.20;10.45;;;;;;;28.97;61.09;100621.88;4954173;29;20051;-77
2023/08/21 11:33:13;;;;;;;11.52;10.32;;;;;;;29.01;61.16;100620.41;4954523;29;20078;-77